createdAt,value
2023-01-01T00:00:01.233Z,16.6
2023-01-01T00:01:00.822Z,16.5
2023-01-01T00:02:01.466Z,16.5
2023-01-01T00:03:01.063Z,16.5
2023-01-01T00:04:00.746Z,16.3
2023-01-01T00:05:01.225Z,16.4
2023-01-01T00:06:00.823Z,16.4
2023-01-01T00:07:01.430Z,16.4
2023-01-01T00:08:04.771Z,16.5
2023-01-01T00:09:01.592Z,16.5
2023-01-01T00:10:01.180Z,16.4
2023-01-01T00:11:00.768Z,16.4
2023-01-01T00:12:01.367Z,16.4
2023-01-01T00:13:00.971Z,16.5
2023-01-01T00:14:04.278Z,16.4
2023-01-01T00:15:01.106Z,16.6
2023-01-01T00:16:00.697Z,16.8
2023-01-01T00:17:01.324Z,16.8
2023-01-01T00:18:00.933Z,16.7
2023-01-01T00:19:01.518Z,16.6
2023-01-01T00:20:01.111Z,16.6
2023-01-01T00:21:00.700Z,16.7
2023-01-01T00:22:05.576Z,16.7
2023-01-01T00:23:00.858Z,16.8
2023-01-01T00:24:01.458Z,16.7
2023-01-01T00:25:01.073Z,16.6
2023-01-01T00:26:01.664Z,16.6
2023-01-01T00:27:01.278Z,16.6
2023-01-01T00:28:00.883Z,16.5
2023-01-01T00:29:01.439Z,16.5
2023-01-01T00:30:01.030Z,16.6
2023-01-01T00:31:01.602Z,16.5
2023-01-01T00:32:01.309Z,16.5
2023-01-01T00:33:00.851Z,16.4
2023-01-01T00:34:01.413Z,16.4
2023-01-01T00:35:01.009Z,16.4
2023-01-01T00:36:01.607Z,16.4
2023-01-01T00:37:01.199Z,16.3
2023-01-01T00:38:00.806Z,16.3
2023-01-01T00:39:01.382Z,16.3
2023-01-01T00:40:00.987Z,16.2
2023-01-01T00:41:01.598Z,16.2
2023-01-01T00:42:01.202Z,16.1
2023-01-01T00:43:00.792Z,16.1
2023-01-01T00:44:01.359Z,16.1
2023-01-01T00:45:00.948Z,16.1
2023-01-01T00:46:01.589Z,16.2
2023-01-01T00:47:01.198Z,16.2
2023-01-01T00:48:00.804Z,16.1
2023-01-01T00:49:01.368Z,16.1
2023-01-01T00:50:00.957Z,16.1
2023-01-01T00:51:01.544Z,16.1
2023-01-01T00:52:01.137Z,16.1
2023-01-01T00:53:00.741Z,16.2
2023-01-01T00:54:01.297Z,16.1
2023-01-01T00:55:00.905Z,16.1
2023-01-01T00:56:01.476Z,16.2
2023-01-01T00:57:01.102Z,16.2
2023-01-01T00:58:01.674Z,16.3
2023-01-01T00:59:01.636Z,16.3
2023-01-01T01:00:01.525Z,16.2
2023-01-01T01:01:01.259Z,16.2
2023-01-01T01:02:01.252Z,16.2
2023-01-01T01:03:01.599Z,16.2
2023-01-01T01:04:01.261Z,16.2
2023-01-01T01:05:00.762Z,16.3
2023-01-01T01:06:01.354Z,16.3
2023-01-01T01:07:00.948Z,16.3
2023-01-01T01:08:01.520Z,16.2
2023-01-01T01:09:01.129Z,16.2
2023-01-01T01:10:00.700Z,16.2
2023-01-01T01:11:01.268Z,16.2
2023-01-01T01:12:17.259Z,16.2
2023-01-01T01:13:01.423Z,16.2
2023-01-01T01:14:01.035Z,16.2
2023-01-01T01:15:01.632Z,16.1
2023-01-01T01:16:01.243Z,16.1
2023-01-01T01:17:00.889Z,16.1
2023-01-01T01:18:01.414Z,16
2023-01-01T01:19:01.034Z,16
2023-01-01T01:20:01.586Z,16
2023-01-01T01:21:01.183Z,16
2023-01-01T01:22:00.770Z,16
2023-01-01T01:23:01.382Z,16.1
2023-01-01T01:24:01.014Z,16.2
2023-01-01T01:25:01.600Z,16.2
2023-01-01T01:26:01.192Z,16.1
2023-01-01T01:27:00.776Z,16.1
2023-01-01T01:28:01.368Z,16.2
2023-01-01T01:29:01.008Z,16.2
2023-01-01T01:30:01.585Z,16.1
2023-01-01T01:31:01.206Z,16
2023-01-01T01:32:00.769Z,16
2023-01-01T01:33:01.350Z,15.9
2023-01-01T01:34:00.955Z,15.9
2023-01-01T01:35:01.553Z,15.9
2023-01-01T01:36:01.143Z,15.8
2023-01-01T01:37:00.728Z,15.8
2023-01-01T01:38:01.314Z,15.8
2023-01-01T01:39:00.907Z,15.8
2023-01-01T01:40:01.514Z,15.8
2023-01-01T01:41:01.103Z,15.8
2023-01-01T01:42:00.698Z,15.8
2023-01-01T01:43:01.271Z,15.9
2023-01-01T01:44:00.856Z,15.9
2023-01-01T01:45:01.493Z,15.9
2023-01-01T01:46:01.119Z,15.8
2023-01-01T01:47:01.648Z,15.8
2023-01-01T01:48:01.270Z,15.8
2023-01-01T01:49:00.856Z,15.8
2023-01-01T01:50:01.433Z,15.8
2023-01-01T01:51:01.064Z,15.7
2023-01-01T01:52:01.622Z,15.7
2023-01-01T01:53:01.237Z,15.7
2023-01-01T01:54:00.839Z,15.6
2023-01-01T01:55:01.419Z,15.7
2023-01-01T01:56:01.037Z,15.7
2023-01-01T01:57:01.597Z,15.7
2023-01-01T01:58:01.197Z,15.8
2023-01-01T01:59:00.786Z,15.8
2023-01-01T02:00:05.203Z,15.8
2023-01-01T02:01:01.079Z,15.8
2023-01-01T02:02:01.759Z,15.7
2023-01-01T02:03:01.455Z,15.7
2023-01-01T02:04:00.848Z,15.7
2023-01-01T02:05:01.463Z,15.7
2023-01-01T02:06:01.051Z,15.7
2023-01-01T02:07:01.653Z,15.7
2023-01-01T02:08:01.242Z,15.6
2023-01-01T02:09:00.832Z,15.6
2023-01-01T02:10:01.413Z,15.6
2023-01-01T02:11:01.012Z,15.6
2023-01-01T02:12:01.596Z,15.7
2023-01-01T02:13:01.183Z,15.7
2023-01-01T02:14:00.772Z,15.6
2023-01-01T02:15:01.339Z,15.6
2023-01-01T02:16:00.948Z,15.5
2023-01-01T02:17:01.556Z,15.6
2023-01-01T02:18:01.169Z,15.5
2023-01-01T02:19:00.729Z,15.5
2023-01-01T02:20:01.327Z,15.4
2023-01-01T02:21:00.950Z,15.4
2023-01-01T02:22:01.511Z,15.3
2023-01-01T02:23:04.371Z,15.4
2023-01-01T02:24:01.673Z,15.4
2023-01-01T02:25:01.267Z,15.4
2023-01-01T02:26:00.862Z,15.3
2023-01-01T02:27:01.459Z,15.3
2023-01-01T02:28:01.076Z,15.3
2023-01-01T02:29:01.641Z,15.3
2023-01-01T02:30:01.229Z,15.4
2023-01-01T02:31:00.882Z,15.3
2023-01-01T02:32:01.401Z,15.4
2023-01-01T02:33:01.113Z,15.4
2023-01-01T02:34:01.581Z,15.4
2023-01-01T02:35:01.172Z,15.4
2023-01-01T02:36:00.747Z,15.4
2023-01-01T02:37:01.339Z,15.3
2023-01-01T02:38:01.097Z,15.4
2023-01-01T02:39:01.532Z,15.5
2023-01-01T02:40:01.124Z,15.4
2023-01-01T02:41:00.733Z,15.4
2023-01-01T02:42:01.302Z,15.3
2023-01-01T02:43:01.188Z,15.3
2023-01-01T02:45:01.036Z,15.4
2023-01-01T02:46:01.600Z,15.4
2023-01-01T02:47:01.193Z,15.4
2023-01-01T02:48:00.783Z,15.4
2023-01-01T02:49:06.349Z,15.4
2023-01-01T02:50:00.933Z,15.4
2023-01-01T02:51:01.525Z,15.5
2023-01-01T02:52:01.119Z,15.4
2023-01-01T02:53:00.694Z,15.5
2023-01-01T02:54:01.279Z,15.4
2023-01-01T02:55:00.892Z,15.4
2023-01-01T02:56:01.460Z,15.4
2023-01-01T02:57:01.066Z,15.4
2023-01-01T02:58:01.620Z,15.3
2023-01-01T02:59:01.212Z,15.3
2023-01-01T03:00:00.822Z,15.2
2023-01-01T03:01:01.444Z,15.3
2023-01-01T03:02:01.177Z,15.3
2023-01-01T03:03:01.775Z,15.3
2023-01-01T03:04:01.422Z,15.3
2023-01-01T03:05:00.899Z,15.2
2023-01-01T03:06:01.485Z,15.2
2023-01-01T03:07:01.069Z,15.3
2023-01-01T03:08:01.657Z,15.3
2023-01-01T03:09:01.259Z,15.3
2023-01-01T03:10:00.894Z,15.3
2023-01-01T03:11:01.456Z,15.3
2023-01-01T03:12:01.066Z,15.3
2023-01-01T03:13:01.621Z,15.3
2023-01-01T03:14:01.222Z,15.3
2023-01-01T03:15:00.812Z,15.4
2023-01-01T03:16:01.488Z,15.3
2023-01-01T03:17:01.049Z,15.3
2023-01-01T03:18:01.606Z,15.3
2023-01-01T03:19:01.208Z,15.3
2023-01-01T03:20:00.799Z,15.3
2023-01-01T03:21:01.395Z,15.3
2023-01-01T03:22:01.008Z,15.2
2023-01-01T03:23:01.558Z,15.2
2023-01-01T03:24:01.150Z,15.1
2023-01-01T03:25:00.735Z,15.2
2023-01-01T03:26:01.310Z,15.2
2023-01-01T03:27:00.916Z,15.2
2023-01-01T03:28:01.474Z,15.1
2023-01-01T03:29:01.083Z,15.3
2023-01-01T03:30:01.634Z,15.2
2023-01-01T03:31:01.319Z,15.2
2023-01-01T03:32:00.903Z,15.1
2023-01-01T03:33:01.489Z,15.1
2023-01-01T03:34:01.081Z,15
2023-01-01T03:35:01.680Z,15
2023-01-01T03:36:01.279Z,15
2023-01-01T03:37:00.901Z,15
2023-01-01T03:38:01.486Z,14.9
2023-01-01T03:39:01.071Z,15
2023-01-01T03:40:01.660Z,15
2023-01-01T03:41:01.264Z,15
2023-01-01T03:42:00.855Z,15.1
2023-01-01T03:43:01.458Z,15
2023-01-01T03:44:01.082Z,15
2023-01-01T03:45:01.652Z,15.2
2023-01-01T03:46:01.248Z,15.1
2023-01-01T03:47:00.919Z,15.1
2023-01-01T03:48:01.454Z,15.1
2023-01-01T03:49:03.959Z,15.1
2023-01-01T03:50:01.589Z,15.1
2023-01-01T03:51:01.187Z,15.1
2023-01-01T03:52:00.790Z,15.1
2023-01-01T03:53:01.458Z,15.1
2023-01-01T03:54:01.028Z,15.2
2023-01-01T03:55:01.618Z,15.2
2023-01-01T03:56:01.207Z,15.2
2023-01-01T03:57:00.794Z,15.2
2023-01-01T03:58:01.392Z,15.2
2023-01-01T03:59:00.987Z,15.2
2023-01-01T04:00:01.583Z,15.2
2023-01-01T04:01:01.178Z,15.2
2023-01-01T04:02:00.815Z,15.2
2023-01-01T04:03:01.401Z,15.2
2023-01-01T04:04:00.987Z,15.2
2023-01-01T04:05:01.565Z,15.2
2023-01-01T04:06:01.192Z,15.2
2023-01-01T04:07:14.028Z,15.2
2023-01-01T04:08:01.291Z,15.2
2023-01-01T04:09:00.900Z,15.1
2023-01-01T04:10:01.453Z,15.1
2023-01-01T04:11:01.049Z,15.1
2023-01-01T04:12:01.621Z,15.1
2023-01-01T04:13:01.269Z,15.1
2023-01-01T04:14:00.861Z,15.1
2023-01-01T04:15:01.431Z,15.2
2023-01-01T04:16:01.044Z,15.1
2023-01-01T04:17:01.605Z,15.1
2023-01-01T04:18:01.279Z,15.1
2023-01-01T04:19:00.782Z,15.2
2023-01-01T04:20:01.363Z,15.2
2023-01-01T04:21:00.962Z,15.2
2023-01-01T04:22:01.529Z,15.2
2023-01-01T04:23:01.155Z,15.1
2023-01-01T04:24:00.700Z,15.1
2023-01-01T04:25:01.306Z,15.1
2023-01-01T04:26:00.896Z,15.1
2023-01-01T04:27:01.487Z,15.1
2023-01-01T04:28:01.101Z,15.2
2023-01-01T04:29:01.660Z,15.1
2023-01-01T04:30:01.250Z,15.1
2023-01-01T04:32:01.418Z,15
2023-01-01T04:33:01.015Z,15
2023-01-01T04:34:01.622Z,14.9
2023-01-01T04:35:01.216Z,15
2023-01-01T04:36:00.799Z,15
2023-01-01T04:37:01.384Z,15
2023-01-01T04:38:00.969Z,15.1
2023-01-01T04:39:01.574Z,15.1
2023-01-01T04:40:01.208Z,15.1
2023-01-01T04:41:00.805Z,15
2023-01-01T04:42:01.361Z,15.1
2023-01-01T04:43:00.951Z,15
2023-01-01T04:44:01.545Z,14.9
2023-01-01T04:45:01.140Z,14.9
2023-01-01T04:46:00.801Z,14.9
2023-01-01T04:47:01.315Z,14.9
2023-01-01T04:48:00.910Z,14.9
2023-01-01T04:49:01.508Z,15
2023-01-01T04:50:01.116Z,15
2023-01-01T04:51:01.670Z,14.9
2023-01-01T04:52:01.286Z,14.9
2023-01-01T04:53:00.874Z,14.9
2023-01-01T04:54:01.448Z,14.9
2023-01-01T04:55:01.033Z,14.9
2023-01-01T04:56:01.627Z,15
2023-01-01T04:57:01.246Z,15
2023-01-01T04:58:00.804Z,15
2023-01-01T04:59:01.374Z,15
2023-01-01T05:00:00.959Z,14.9
2023-01-01T05:01:01.699Z,15
2023-01-01T05:02:01.337Z,15
2023-01-01T05:03:00.815Z,15
2023-01-01T05:04:01.333Z,15
2023-01-01T05:05:00.929Z,15
2023-01-01T05:06:01.542Z,15.1
2023-01-01T05:07:01.196Z,15
2023-01-01T05:08:00.733Z,15
2023-01-01T05:09:01.317Z,15
2023-01-01T05:10:00.911Z,15
2023-01-01T05:11:01.521Z,15
2023-01-01T05:12:01.118Z,15
2023-01-01T05:13:01.721Z,14.9
2023-01-01T05:14:01.312Z,14.9
2023-01-01T05:15:00.907Z,14.9
2023-01-01T05:16:01.577Z,14.9
2023-01-01T05:17:01.161Z,14.9
2023-01-01T05:18:00.742Z,14.9
2023-01-01T05:19:01.300Z,14.8
2023-01-01T05:20:00.892Z,14.8
2023-01-01T05:21:01.474Z,14.8
2023-01-01T05:22:05.443Z,14.8
2023-01-01T05:23:01.654Z,14.8
2023-01-01T05:24:01.252Z,14.8
2023-01-01T05:25:00.843Z,14.8
2023-01-01T05:26:01.417Z,14.9
2023-01-01T05:27:01.004Z,15
2023-01-01T05:28:01.666Z,14.9
2023-01-01T05:29:01.297Z,14.8
2023-01-01T05:30:00.842Z,14.8
2023-01-01T05:31:01.433Z,14.8
2023-01-01T05:32:01.081Z,14.8
2023-01-01T05:33:01.724Z,14.8
2023-01-01T05:35:00.777Z,14.8
2023-01-01T05:36:01.368Z,14.8
2023-01-01T05:37:00.961Z,14.7
2023-01-01T05:38:01.724Z,14.8
2023-01-01T05:39:01.204Z,14.7
2023-01-01T05:40:00.785Z,14.7
2023-01-01T05:41:01.357Z,14.7
2023-01-01T05:42:00.945Z,14.7
2023-01-01T05:43:01.700Z,14.8
2023-01-01T05:44:01.193Z,14.8
2023-01-01T05:45:00.808Z,14.7
2023-01-01T05:46:01.392Z,14.7
2023-01-01T05:47:01.006Z,14.6
2023-01-01T05:48:01.750Z,14.6
2023-01-01T05:49:01.245Z,14.6
2023-01-01T05:50:00.824Z,14.6
2023-01-01T05:51:01.410Z,14.6
2023-01-01T05:52:01.000Z,14.6
2023-01-01T05:53:01.730Z,14.6
2023-01-01T05:54:01.261Z,14.6
2023-01-01T05:55:00.796Z,14.6
2023-01-01T05:56:01.381Z,14.7
2023-01-01T05:57:00.966Z,14.7
2023-01-01T05:58:01.717Z,14.7
2023-01-01T05:59:01.222Z,14.7
2023-01-01T06:00:00.788Z,14.6
2023-01-01T06:01:01.386Z,14.6
2023-01-01T06:02:01.155Z,14.6
2023-01-01T06:03:01.725Z,14.5
2023-01-01T06:04:01.304Z,14.6
2023-01-01T06:05:00.822Z,14.6
2023-01-01T06:06:01.405Z,14.6
2023-01-01T06:07:00.996Z,14.6
2023-01-01T06:08:01.778Z,14.6
2023-01-01T06:09:01.270Z,14.7
2023-01-01T06:10:00.839Z,14.8
2023-01-01T06:11:01.407Z,14.8
2023-01-01T06:12:00.994Z,14.7
2023-01-01T06:13:01.994Z,14.7
2023-01-01T06:14:01.280Z,14.6
2023-01-01T06:15:00.810Z,14.6
2023-01-01T06:16:01.408Z,14.4
2023-01-01T06:17:01.099Z,14.5
2023-01-01T06:18:01.749Z,14.4
2023-01-01T06:19:01.279Z,14.4
2023-01-01T06:20:00.864Z,14.4
2023-01-01T06:21:01.417Z,14.3
2023-01-01T06:22:01.002Z,14.3
2023-01-01T06:23:01.841Z,14.3
2023-01-01T06:24:01.276Z,14.3
2023-01-01T06:25:00.824Z,14.3
2023-01-01T06:26:01.399Z,14.3
2023-01-01T06:27:00.991Z,14.3
2023-01-01T06:28:01.574Z,14.3
2023-01-01T06:29:01.179Z,14.3
2023-01-01T06:30:00.749Z,14.3
2023-01-01T06:31:01.347Z,14.3
2023-01-01T06:32:00.961Z,14.4
2023-01-01T06:33:01.570Z,14.4
2023-01-01T06:34:01.178Z,14.5
2023-01-01T06:35:00.766Z,14.5
2023-01-01T06:36:01.336Z,14.5
2023-01-01T06:37:06.421Z,14.4
2023-01-01T06:38:01.479Z,14.4
2023-01-01T06:39:01.078Z,14.4
2023-01-01T06:40:01.680Z,14.4
2023-01-01T06:41:01.264Z,14.5
2023-01-01T06:42:00.859Z,14.5
2023-01-01T06:43:01.439Z,14.5
2023-01-01T06:44:01.034Z,14.5
2023-01-01T06:45:01.656Z,14.6
2023-01-01T06:46:01.339Z,14.6
2023-01-01T06:47:00.830Z,14.6
2023-01-01T06:48:01.406Z,14.6
2023-01-01T06:49:01.107Z,14.5
2023-01-01T06:50:01.617Z,14.6
2023-01-01T06:51:01.218Z,14.6
2023-01-01T06:52:00.792Z,14.6
2023-01-01T06:53:01.375Z,14.6
2023-01-01T06:54:01.050Z,14.7
2023-01-01T06:55:01.587Z,14.7
2023-01-01T06:56:01.181Z,14.7
2023-01-01T06:57:00.762Z,14.6
2023-01-01T06:58:01.345Z,14.6
2023-01-01T06:59:00.935Z,14.6
2023-01-01T07:00:01.570Z,14.6
2023-01-01T07:01:04.856Z,14.6
2023-01-01T07:02:01.823Z,14.6
2023-01-01T07:03:01.631Z,14.6
2023-01-01T07:04:01.002Z,14.6
2023-01-01T07:05:01.586Z,14.6
2023-01-01T07:06:01.181Z,14.6
2023-01-01T07:07:00.766Z,14.6
2023-01-01T07:08:01.398Z,14.4
2023-01-01T07:09:00.997Z,14.4
2023-01-01T07:10:01.603Z,14.4
2023-01-01T07:11:01.194Z,14.3
2023-01-01T07:12:00.776Z,14.3
2023-01-01T07:13:01.344Z,14.3
2023-01-01T07:14:00.940Z,14.3
2023-01-01T07:15:01.549Z,14.3
2023-01-01T07:16:02.611Z,14.4
2023-01-01T07:17:01.678Z,14.4
2023-01-01T07:18:01.311Z,14.2
2023-01-01T07:19:00.908Z,14.3
2023-01-01T07:20:01.511Z,14.2
2023-01-01T07:21:01.128Z,14.2
2023-01-01T07:22:01.672Z,14.1
2023-01-01T07:23:01.262Z,14.1
2023-01-01T07:24:00.855Z,14.2
2023-01-01T07:25:01.456Z,14.3
2023-01-01T07:26:01.067Z,14.3
2023-01-01T07:27:01.635Z,14.2
2023-01-01T07:28:01.243Z,14.2
2023-01-01T07:29:08.249Z,14.1
2023-01-01T07:30:01.392Z,14.2
2023-01-01T07:31:01.032Z,14.2
2023-01-01T07:32:01.563Z,14.2
2023-01-01T07:33:01.155Z,14.2
2023-01-01T07:34:00.743Z,14.2
2023-01-01T07:35:01.345Z,14.2
2023-01-01T07:36:00.938Z,14.1
2023-01-01T07:37:01.549Z,14
2023-01-01T07:38:01.142Z,13.9
2023-01-01T07:39:00.743Z,13.9
2023-01-01T07:40:01.330Z,13.8
2023-01-01T07:41:00.913Z,13.8
2023-01-01T07:42:03.783Z,13.8
2023-01-01T07:43:01.043Z,13.8
2023-01-01T07:44:01.637Z,13.7
2023-01-01T07:45:01.284Z,13.6
2023-01-01T07:46:00.984Z,13.6
2023-01-01T07:47:01.452Z,13.5
2023-01-01T07:48:01.048Z,13.4
2023-01-01T07:49:01.626Z,13.4
2023-01-01T07:50:01.267Z,13.4
2023-01-01T07:51:00.783Z,13.4
2023-01-01T07:52:01.396Z,13.4
2023-01-01T07:53:01.021Z,13.3
2023-01-01T07:54:06.426Z,13.3
2023-01-01T07:55:01.129Z,13.3
2023-01-01T07:56:01.717Z,13.3
2023-01-01T07:57:01.399Z,13.3
2023-01-01T07:58:00.939Z,13.3
2023-01-01T07:59:01.549Z,13.2
2023-01-01T08:00:01.139Z,13.2
2023-01-01T08:01:00.804Z,13.1
2023-01-01T08:02:01.494Z,13.2
2023-01-01T08:03:01.090Z,13.2
2023-01-01T08:04:01.581Z,13.2
2023-01-01T08:05:01.175Z,13.1
2023-01-01T08:06:00.747Z,13.2
2023-01-01T08:07:01.360Z,13.2
2023-01-01T08:08:00.947Z,13.1
2023-01-01T08:09:01.630Z,13.1
2023-01-01T08:10:01.190Z,13.1
2023-01-01T08:11:03.741Z,13.1
2023-01-01T08:12:01.307Z,13.2
2023-01-01T08:13:00.895Z,13.1
2023-01-01T08:14:01.492Z,13.2
2023-01-01T08:15:01.104Z,13.1
2023-01-01T08:16:01.732Z,13
2023-01-01T08:17:01.351Z,13.1
2023-01-01T08:18:00.907Z,13.1
2023-01-01T08:19:01.516Z,13.1
2023-01-01T08:20:01.103Z,13.1
2023-01-01T08:21:01.695Z,13.1
2023-01-01T08:22:01.336Z,13
2023-01-01T08:23:06.551Z,13
2023-01-01T08:24:01.440Z,13
2023-01-01T08:25:01.049Z,13
2023-01-01T08:26:01.619Z,13
2023-01-01T08:27:01.210Z,13.1
2023-01-01T08:28:00.791Z,13.1
2023-01-01T08:29:01.407Z,13
2023-01-01T08:30:01.022Z,13.1
2023-01-01T08:31:01.666Z,13.1
2023-01-01T08:32:01.219Z,13.2
2023-01-01T08:33:00.788Z,13.2
2023-01-01T08:34:01.377Z,13.2
2023-01-01T08:35:00.994Z,13.2
2023-01-01T08:36:01.539Z,13.2
2023-01-01T08:37:01.127Z,13.2
2023-01-01T08:38:01.701Z,13.2
2023-01-01T08:39:01.288Z,13.3
2023-01-01T08:40:00.930Z,13.3
2023-01-01T08:41:01.525Z,13.3
2023-01-01T08:42:01.133Z,13.3
2023-01-01T08:43:01.704Z,13.4
2023-01-01T08:44:01.292Z,13.3
2023-01-01T08:45:00.944Z,13.3
2023-01-01T08:46:01.535Z,13.4
2023-01-01T08:47:01.178Z,13.4
2023-01-01T08:48:01.699Z,13.4
2023-01-01T08:49:01.299Z,13.5
2023-01-01T08:50:00.938Z,13.4
2023-01-01T08:51:01.472Z,13.5
2023-01-01T08:52:01.085Z,13.5
2023-01-01T08:53:01.659Z,13.5
2023-01-01T08:54:01.268Z,13.5
2023-01-01T08:55:00.822Z,13.6
2023-01-01T08:56:01.457Z,13.6
2023-01-01T08:57:01.096Z,13.7
2023-01-01T08:58:01.641Z,13.6
2023-01-01T08:59:04.023Z,13.6
2023-01-01T09:00:00.796Z,13.7
2023-01-01T09:01:01.520Z,13.7
2023-01-01T09:02:01.187Z,13.7
2023-01-01T09:03:01.744Z,13.7
2023-01-01T09:04:01.288Z,13.8
2023-01-01T09:05:00.881Z,13.8
2023-01-01T09:06:01.459Z,13.8
2023-01-01T09:07:01.084Z,13.8
2023-01-01T09:08:01.671Z,13.8
2023-01-01T09:09:01.305Z,13.8
2023-01-01T09:10:00.953Z,13.9
2023-01-01T09:11:01.497Z,13.9
2023-01-01T09:12:01.097Z,13.9
2023-01-01T09:13:01.711Z,13.9
2023-01-01T09:14:01.323Z,13.9
2023-01-01T09:15:00.913Z,13.9
2023-01-01T09:16:01.563Z,13.9
2023-01-01T09:17:01.156Z,13.9
2023-01-01T09:18:00.747Z,13.9
2023-01-01T09:19:01.346Z,14
2023-01-01T09:20:00.954Z,14
2023-01-01T09:21:01.524Z,14
2023-01-01T09:22:01.111Z,14
2023-01-01T09:23:05.774Z,14.1
2023-01-01T09:24:01.256Z,14
2023-01-01T09:25:00.843Z,14
2023-01-01T09:26:01.415Z,14.1
2023-01-01T09:27:01.004Z,14.1
2023-01-01T09:28:01.577Z,14.1
2023-01-01T09:29:01.216Z,14.1
2023-01-01T09:30:00.763Z,14.1
2023-01-01T09:31:01.344Z,14.1
2023-01-01T09:32:01.014Z,14.1
2023-01-01T09:33:01.507Z,14.1
2023-01-01T09:34:01.117Z,14.1
2023-01-01T09:35:01.668Z,14.2
2023-01-01T09:36:01.258Z,14.2
2023-01-01T09:37:00.847Z,14.2
2023-01-01T09:38:01.452Z,14.2
2023-01-01T09:39:01.060Z,14.2
2023-01-01T09:40:01.641Z,14.2
2023-01-01T09:41:01.244Z,14.2
2023-01-01T09:42:00.825Z,14.2
2023-01-01T09:43:01.423Z,14.2
2023-01-01T09:44:01.042Z,14.2
2023-01-01T09:45:01.677Z,14.2
2023-01-01T09:46:01.293Z,14.1
2023-01-01T09:47:00.869Z,14.1
2023-01-01T09:48:01.473Z,14.2
2023-01-01T09:49:01.061Z,14.1
2023-01-01T09:50:01.660Z,14.2
2023-01-01T09:51:01.247Z,14.2
2023-01-01T09:52:00.844Z,14.1
2023-01-01T09:53:01.423Z,14.2
2023-01-01T09:54:01.014Z,14.2
2023-01-01T09:55:01.621Z,14.2
2023-01-01T09:56:01.229Z,14.2
2023-01-01T09:57:00.783Z,14.2
2023-01-01T09:58:01.367Z,14.2
2023-01-01T09:59:00.960Z,14.2
2023-01-01T10:00:01.650Z,14.1
2023-01-01T10:01:01.359Z,14.2
2023-01-01T10:02:00.907Z,14.2
2023-01-01T10:03:01.375Z,14.1
2023-01-01T10:04:00.984Z,14.1
2023-01-01T10:05:01.544Z,14.2
2023-01-01T10:06:01.194Z,14.2
2023-01-01T10:07:00.770Z,14.3
2023-01-01T10:08:01.379Z,14.2
2023-01-01T10:09:00.987Z,14.2
2023-01-01T10:10:01.605Z,14.2
2023-01-01T10:11:01.203Z,14.2
2023-01-01T10:12:00.792Z,14.2
2023-01-01T10:13:01.398Z,14.2
2023-01-01T10:14:00.998Z,14.2
2023-01-01T10:15:01.607Z,14.2
2023-01-01T10:16:01.193Z,14.2
2023-01-01T10:17:01.788Z,14.2
2023-01-01T10:18:01.420Z,14.3
2023-01-01T10:19:01.019Z,14.3
2023-01-01T10:20:01.624Z,14.3
2023-01-01T10:21:01.226Z,14.3
2023-01-01T10:22:00.794Z,14.2
2023-01-01T10:23:01.401Z,14.2
2023-01-01T10:24:01.018Z,14.3
2023-01-01T10:25:01.569Z,14.2
2023-01-01T10:26:01.163Z,14.2
2023-01-01T10:27:01.732Z,14.3
2023-01-01T10:28:01.321Z,14.2
2023-01-01T10:29:00.927Z,14.2
2023-01-01T10:30:04.474Z,14.2
2023-01-01T10:31:01.033Z,14.2
2023-01-01T10:32:01.646Z,14.3
2023-01-01T10:33:01.320Z,14.2
2023-01-01T10:34:00.883Z,14.3
2023-01-01T10:35:01.427Z,14.2
2023-01-01T10:36:01.016Z,14.3
2023-01-01T10:37:01.635Z,14.3
2023-01-01T10:38:01.234Z,14.3
2023-01-01T10:39:00.824Z,14.3
2023-01-01T10:40:01.383Z,14.3
2023-01-01T10:41:00.991Z,14.3
2023-01-01T10:42:01.598Z,14.4
2023-01-01T10:43:01.236Z,14.4
2023-01-01T10:44:00.762Z,14.4
2023-01-01T10:45:01.366Z,14.5
2023-01-01T10:46:01.041Z,14.5
2023-01-01T10:47:01.522Z,14.4
2023-01-01T10:48:01.182Z,14.4
2023-01-01T10:49:00.796Z,14.4
2023-01-01T10:50:01.377Z,14.4
2023-01-01T10:51:00.970Z,14.4
2023-01-01T10:52:01.575Z,14.4
2023-01-01T10:53:01.162Z,14.4
2023-01-01T10:54:01.891Z,14.4
2023-01-01T10:55:01.525Z,14.6
2023-01-01T10:56:00.956Z,14.4
2023-01-01T10:57:01.562Z,14.6
2023-01-01T10:58:01.152Z,14.6
2023-01-01T10:59:01.753Z,14.6
2023-01-01T11:00:01.363Z,14.6
2023-01-01T11:01:01.217Z,14.6
2023-01-01T11:02:01.746Z,14.6
2023-01-01T11:03:01.207Z,14.6
2023-01-01T11:04:01.765Z,14.5
2023-01-01T11:05:05.427Z,14.4
2023-01-01T11:06:00.914Z,14.5
2023-01-01T11:07:01.500Z,14.6
2023-01-01T11:08:01.093Z,14.5
2023-01-01T11:09:01.678Z,14.6
2023-01-01T11:10:03.952Z,14.6
2023-01-01T11:11:00.882Z,14.6
2023-01-01T11:12:07.295Z,14.6
2023-01-01T11:13:05.458Z,14.7
2023-01-01T11:14:01.514Z,14.7
2023-01-01T11:15:01.101Z,14.7
2023-01-01T11:16:01.764Z,14.6
2023-01-01T11:17:01.393Z,14.5
2023-01-01T11:18:00.925Z,14.5
2023-01-01T11:19:01.512Z,14.5
2023-01-01T11:20:02.253Z,14.5
2023-01-01T11:21:01.205Z,14.5
2023-01-01T11:22:00.822Z,14.6
2023-01-01T11:23:01.415Z,14.6
2023-01-01T11:24:01.520Z,14.6
2023-01-01T11:25:01.144Z,14.5
2023-01-01T11:26:01.706Z,14.5
2023-01-01T11:27:01.310Z,14.5
2023-01-01T11:28:00.927Z,14.5
2023-01-01T11:29:01.496Z,14.4
2023-01-01T11:30:01.107Z,14.4
2023-01-01T11:31:01.714Z,14.5
2023-01-01T11:32:01.338Z,14.5
2023-01-01T11:33:00.896Z,14.5
2023-01-01T11:34:01.496Z,14.5
2023-01-01T11:35:01.090Z,14.4
2023-01-01T11:36:01.719Z,14.5
2023-01-01T11:37:01.357Z,14.5
2023-01-01T11:38:00.916Z,14.5
2023-01-01T11:39:01.508Z,14.5
2023-01-01T11:40:01.111Z,14.5
2023-01-01T11:41:01.709Z,14.6
2023-01-01T11:42:01.330Z,14.5
2023-01-01T11:43:00.916Z,14.5
2023-01-01T11:44:01.507Z,14.6
2023-01-01T11:45:01.118Z,14.6
2023-01-01T11:46:01.732Z,14.5
2023-01-01T11:47:01.349Z,14.5
2023-01-01T11:48:00.911Z,14.5
2023-01-01T11:49:01.476Z,14.6
2023-01-01T11:50:01.066Z,14.5
2023-01-01T11:51:01.655Z,14.6
2023-01-01T11:52:01.288Z,14.6
2023-01-01T11:53:00.842Z,14.6
2023-01-01T11:54:01.404Z,14.6
2023-01-01T11:55:00.988Z,14.6
2023-01-01T11:56:01.582Z,14.8
2023-01-01T11:57:01.206Z,14.8
2023-01-01T11:58:00.766Z,14.7
2023-01-01T11:59:01.351Z,14.6
2023-01-01T12:00:00.948Z,14.6
2023-01-01T12:01:01.562Z,14.5
2023-01-01T12:02:01.182Z,14.6
2023-01-01T12:03:01.805Z,14.6
2023-01-01T12:04:01.495Z,14.6
2023-01-01T12:05:01.006Z,14.6
2023-01-01T12:06:01.587Z,14.6
2023-01-01T12:07:01.203Z,14.6
2023-01-01T12:08:01.786Z,14.5
2023-01-01T12:09:01.445Z,14.5
2023-01-01T12:10:00.994Z,14.5
2023-01-01T12:11:01.588Z,14.5
2023-01-01T12:12:01.221Z,14.6
2023-01-01T12:13:01.783Z,14.7
2023-01-01T12:14:01.369Z,14.7
2023-01-01T12:15:00.971Z,14.7
2023-01-01T12:16:01.574Z,14.6
2023-01-01T12:17:01.185Z,14.5
2023-01-01T12:18:00.770Z,14.5
2023-01-01T12:19:01.369Z,14.6
2023-01-01T12:20:00.961Z,14.5
2023-01-01T12:21:01.546Z,14.5
2023-01-01T12:22:01.162Z,14.5
2023-01-01T12:23:01.784Z,14.5
2023-01-01T12:24:01.408Z,14.6
2023-01-01T12:25:01.000Z,14.7
2023-01-01T12:26:01.560Z,14.8
2023-01-01T12:27:05.306Z,14.7
2023-01-01T12:28:01.724Z,14.7
2023-01-01T12:29:01.329Z,14.8
2023-01-01T12:30:00.947Z,14.7
2023-01-01T12:31:01.548Z,14.7
2023-01-01T12:32:01.144Z,14.7
2023-01-01T12:33:07.498Z,14.8
2023-01-01T12:34:01.290Z,14.8
2023-01-01T12:35:00.904Z,14.7
2023-01-01T12:36:01.465Z,14.7
2023-01-01T12:37:01.054Z,14.6
2023-01-01T12:38:01.648Z,14.6
2023-01-01T12:39:01.241Z,14.6
2023-01-01T12:40:00.864Z,14.5
2023-01-01T12:41:01.437Z,14.5
2023-01-01T12:42:01.027Z,14.5
2023-01-01T12:43:01.621Z,14.5
2023-01-01T12:44:01.225Z,14.5
2023-01-01T12:45:00.816Z,14.5
2023-01-01T12:46:01.380Z,14.5
2023-01-01T12:47:00.988Z,14.5
2023-01-01T12:48:01.566Z,14.5
2023-01-01T12:49:01.160Z,14.5
2023-01-01T12:50:01.786Z,14.6
2023-01-01T12:51:05.137Z,14.7
2023-01-01T12:52:00.916Z,14.6
2023-01-01T12:53:01.508Z,14.5
2023-01-01T12:54:01.099Z,14.5
2023-01-01T12:55:01.721Z,14.5
2023-01-01T12:56:01.341Z,14.5
2023-01-01T12:57:00.962Z,14.5
2023-01-01T12:58:01.520Z,14.4
2023-01-01T12:59:01.118Z,14.5
2023-01-01T13:00:01.715Z,14.4
2023-01-01T13:01:01.412Z,14.4
2023-01-01T13:02:01.151Z,14.4
2023-01-01T13:03:01.829Z,14.4
2023-01-01T13:04:01.187Z,14.5
2023-01-01T13:05:01.756Z,14.4
2023-01-01T13:06:01.355Z,14.5
2023-01-01T13:07:00.965Z,14.4
2023-01-01T13:08:01.555Z,14.3
2023-01-01T13:09:01.160Z,14.4
2023-01-01T13:10:01.741Z,14.4
2023-01-01T13:11:01.329Z,14.4
2023-01-01T13:12:00.948Z,14.4
2023-01-01T13:13:01.933Z,14.4
2023-01-01T13:14:01.144Z,14.4
2023-01-01T13:15:01.731Z,14.3
2023-01-01T13:16:01.380Z,14.3
2023-01-01T13:17:00.997Z,14.3
2023-01-01T13:18:01.550Z,14.4
2023-01-01T13:19:02.927Z,14.3
2023-01-01T13:20:01.687Z,14.3
2023-01-01T13:21:01.274Z,14.4
2023-01-01T13:22:00.885Z,14.4
2023-01-01T13:23:01.435Z,14.3
2023-01-01T13:24:01.025Z,14.3
2023-01-01T13:25:01.606Z,14.3